オタワ の空港の天気 - METARとTAF

オタワ・マクドナルド・カルティエ国際空港 ( CYOW / YOW ) - カナダ オンタリオ州オタワ
飛行場実況気象(Metar)
観測時間07/17 05:00 EDT (07/17 09:00 UTC)
風向・風速南西 3m/s
視程10km以上
天気現象
少しの雲 雲底高度 1520m
全天の4割程度の雲 雲底高度 2740m
全天の8割程度の雲 雲底高度 7320m
気温22℃
湿度88%
気圧1010.5hPa
METARCYOW 170900Z 22006KT 15SM FEW050 SCT090 BKN240 22/20 A2984 RMK SC1AC3CI2 SLP105 DENSITY ALT 1400FT
過去の天気等 Google飛行場航空写真 Wunderground天気予報

過去48時間のMETAR

飛行場予報(TAF)
発表時間: 7/17 04:45 EDT (7/17 08:45 UTC)
予報対象時間: 17日5時 EDT ~ 18日2時 EDT
風向・風速南西 4m/s
視程10km以上
少しの雲 雲底高度 1830m
全天の8割程度の雲 雲底高度 6710m
17日10時 EDT から
風向・風速西 4m/s
視程10km以上
全天の8割程度の雲 雲底高度 1520m
17日12時 EDT ~ 17日15時 EDT に一時的に
視程8050m
天気現象しゅう雨 もや
全天の8割程度の雲 雲底高度 610m
全天を覆う雲 雲底高度 1520m
17日16時 EDT から
風向・風速北 4m/s
視程10km以上
全天の8割程度の雲 雲底高度 910m
17日19時 EDT から
風向・風速北 4m/s
視程10km以上
なし
TAF CYOW 170845Z 1709/1806 22008KT P6SM FEW060 BKN220
FM171400 27007KT P6SM BKN050
TEMPO 1716/1719 5SM SHRA BR BKN020 OVC050
FM172000 35008KT P6SM BKN030
FM172300 35008KT P6SM SKC RMK NXT FCST BY 171200Z